createdAt,value
2022-12-24T00:00:24.806Z,99103.88
2022-12-24T00:01:59.376Z,99097.81
2022-12-24T00:03:33.152Z,99104.78
2022-12-24T00:05:07.657Z,99100.47
2022-12-24T00:06:40.810Z,99103.06
2022-12-24T00:08:13.008Z,99099.59
2022-12-24T00:09:46.172Z,99103.03
2022-12-24T00:11:19.958Z,99100.44
2022-12-24T00:12:52.098Z,99113.44
2022-12-24T00:14:25.247Z,99104.75
2022-12-24T00:15:58.462Z,99102.16
2022-12-24T00:17:33.003Z,99106.50
2022-12-24T00:19:06.229Z,99099.56
2022-12-24T00:20:39.348Z,99109.13
2022-12-24T00:22:12.520Z,99107.38
2022-12-24T00:23:44.878Z,99110.00
2022-12-24T00:25:18.436Z,99113.44
2022-12-24T00:26:51.627Z,99119.53
2022-12-24T00:28:24.080Z,99108.25
2022-12-24T00:29:57.251Z,99107.34
2022-12-24T00:31:30.599Z,99113.44
2022-12-24T00:33:04.372Z,99115.19
2022-12-24T00:34:37.611Z,99113.47
2022-12-24T00:36:10.059Z,99113.47
2022-12-24T00:37:43.270Z,99109.97
2022-12-24T00:39:16.440Z,99101.31
2022-12-24T00:40:48.589Z,99110.84
2022-12-24T00:42:21.783Z,99104.78
2022-12-24T00:43:56.288Z,99109.09
2022-12-24T00:45:29.449Z,99108.25
2022-12-24T00:47:05.518Z,99098.72
2022-12-24T00:48:44.582Z,99099.59
2022-12-24T00:50:17.907Z,99103.94
2022-12-24T00:51:51.165Z,99092.66
2022-12-24T00:53:24.330Z,99097.84
2022-12-24T00:54:57.576Z,99077.06
2022-12-24T00:56:29.932Z,99097.84
2022-12-24T00:58:03.040Z,99094.41
2022-12-24T00:59:36.186Z,99092.66
2022-12-24T01:01:08.517Z,99084.88
2022-12-24T01:02:41.899Z,99093.53
2022-12-24T01:04:34.448Z,99090.94
2022-12-24T01:06:09.752Z,99091.78
2022-12-24T01:07:44.316Z,99089.16
2022-12-24T01:09:17.660Z,99090.94
2022-12-24T01:10:50.779Z,99086.56
2022-12-24T01:12:23.441Z,99089.16
2022-12-24T01:13:57.371Z,99096.09
2022-12-24T01:15:30.807Z,99090.91
2022-12-24T01:17:03.083Z,99092.63
2022-12-24T01:18:36.249Z,99086.53
2022-12-24T01:20:16.165Z,99092.63
2022-12-24T01:21:49.316Z,99083.94
2022-12-24T01:23:22.424Z,99085.69
2022-12-24T01:24:55.700Z,99088.31
2022-12-24T01:26:28.856Z,99083.94
2022-12-24T01:28:01.956Z,99083.09
2022-12-24T01:29:34.273Z,99085.69
2022-12-24T01:31:12.237Z,99089.16
2022-12-24T01:32:45.389Z,99085.66
2022-12-24T01:34:17.586Z,99078.75
2022-12-24T01:35:52.125Z,99083.06
2022-12-24T01:37:25.355Z,99076.13
2022-12-24T01:38:57.531Z,99068.31
2022-12-24T01:40:48.264Z,99070.06
2022-12-24T01:42:41.321Z,99069.16
2022-12-24T01:44:35.255Z,99068.28
2022-12-24T01:46:15.043Z,99083.06
2022-12-24T01:47:48.804Z,99068.31
2022-12-24T01:49:22.200Z,99077.00
2022-12-24T01:51:01.638Z,99078.75
2022-12-24T01:52:37.074Z,99073.56
2022-12-24T01:54:13.367Z,99075.28
2022-12-24T01:55:48.221Z,99078.78
2022-12-24T01:57:27.287Z,99082.28
2022-12-24T01:59:05.806Z,99072.72
2022-12-24T02:00:38.174Z,99084.88
2022-12-24T02:02:12.076Z,99089.19
2022-12-24T02:03:44.733Z,99084.00
2022-12-24T02:05:24.665Z,99080.50
2022-12-24T02:06:59.282Z,99083.13
2022-12-24T02:08:40.076Z,99071.84
2022-12-24T02:10:14.709Z,99076.19
2022-12-24T02:11:48.307Z,99076.19
2022-12-24T02:13:22.785Z,99079.66
2022-12-24T02:14:55.258Z,99077.09
2022-12-24T02:16:39.708Z,99068.38
2022-12-24T02:18:21.548Z,99070.13
2022-12-24T02:20:32.016Z,99068.41
2022-12-24T02:22:11.588Z,99068.41
2022-12-24T02:24:02.858Z,99071.88
2022-12-24T02:26:08.278Z,99075.31
2022-12-24T02:27:56.992Z,99087.44
2022-12-24T02:30:00.091Z,99077.03
2022-12-24T02:31:42.824Z,99077.06
2022-12-24T02:33:31.208Z,99083.97
2022-12-24T02:35:10.779Z,99083.13
2022-12-24T02:36:48.383Z,99081.38
2022-12-24T02:38:28.364Z,99075.31
2022-12-24T02:40:13.772Z,99086.59
2022-12-24T02:42:08.885Z,99070.09
2022-12-24T02:43:46.127Z,99081.38
2022-12-24T02:45:23.160Z,99082.25
2022-12-24T02:47:00.485Z,99080.50
2022-12-24T02:48:34.290Z,99080.50
2022-12-24T02:50:09.713Z,99089.16
2022-12-24T02:51:43.133Z,99078.75
2022-12-24T02:53:16.211Z,99087.44
2022-12-24T02:54:49.429Z,99087.41
2022-12-24T02:56:37.965Z,99085.72
2022-12-24T02:58:26.220Z,99081.38
2022-12-24T03:00:04.010Z,99077.94
2022-12-24T03:01:50.199Z,99083.97
2022-12-24T03:03:43.293Z,99073.59
2022-12-24T03:05:23.965Z,99078.81
2022-12-24T03:07:02.268Z,99064.91
2022-12-24T03:08:45.238Z,99084.00
2022-12-24T03:10:23.277Z,99084.88
2022-12-24T03:12:02.815Z,99084.00
2022-12-24T03:13:36.197Z,99073.59
2022-12-24T03:15:10.288Z,99084.00
2022-12-24T03:16:45.317Z,99089.19
2022-12-24T03:18:20.789Z,99085.75
2022-12-24T03:19:56.719Z,99086.59
2022-12-24T03:21:34.621Z,99087.47
2022-12-24T03:23:08.111Z,99077.06
2022-12-24T03:24:40.311Z,99077.94
2022-12-24T03:26:15.790Z,99076.22
2022-12-24T03:27:48.368Z,99078.81
2022-12-24T03:29:21.887Z,99080.53
2022-12-24T03:30:55.755Z,99081.38
2022-12-24T03:32:29.839Z,99088.34
2022-12-24T03:34:02.937Z,99085.75
2022-12-24T03:35:36.450Z,99087.47
2022-12-24T03:37:09.668Z,99086.63
2022-12-24T03:38:41.818Z,99080.53
2022-12-24T03:40:15.338Z,99084.88
2022-12-24T03:41:47.761Z,99084.00
2022-12-24T03:43:20.948Z,99085.75
2022-12-24T03:44:54.082Z,99089.19
2022-12-24T03:46:27.299Z,99080.50
2022-12-24T03:48:00.523Z,99084.00
2022-12-24T03:49:33.661Z,99087.44
2022-12-24T03:51:18.937Z,99082.28
2022-12-24T03:52:52.141Z,99068.41
2022-12-24T03:54:25.307Z,99078.81
2022-12-24T03:55:58.454Z,99081.41
2022-12-24T03:57:30.619Z,99075.31
2022-12-24T03:59:03.923Z,99079.69
2022-12-24T04:00:36.065Z,99077.06
2022-12-24T04:02:09.548Z,99080.53
2022-12-24T04:03:41.885Z,99083.16
2022-12-24T04:05:16.213Z,99089.19
2022-12-24T04:06:50.808Z,99094.41
2022-12-24T04:08:23.901Z,99092.66
2022-12-24T04:09:57.016Z,99096.13
2022-12-24T04:11:29.173Z,99095.28
2022-12-24T04:13:02.300Z,99090.06
2022-12-24T04:14:35.567Z,99098.72
2022-12-24T04:16:10.983Z,99099.59
2022-12-24T04:17:44.183Z,99097.00
2022-12-24T04:19:17.336Z,99095.25
2022-12-24T04:20:50.455Z,99096.13
2022-12-24T04:22:24.945Z,99094.41
2022-12-24T04:23:58.079Z,99092.66
2022-12-24T04:25:31.160Z,99089.19
2022-12-24T04:27:04.450Z,99097.00
2022-12-24T04:28:38.200Z,99097.88
2022-12-24T04:30:12.036Z,99101.31
2022-12-24T04:31:45.315Z,99100.47
2022-12-24T04:33:17.446Z,99094.38
2022-12-24T04:34:50.590Z,99100.44
2022-12-24T04:36:23.820Z,99097.84
2022-12-24T04:37:58.424Z,99087.44
2022-12-24T04:39:31.604Z,99091.78
2022-12-24T04:41:05.609Z,99094.38
2022-12-24T04:42:38.791Z,99087.47
2022-12-24T04:44:10.936Z,99083.09
2022-12-24T04:45:44.188Z,99090.03
2022-12-24T04:47:17.476Z,99092.66
2022-12-24T04:48:55.013Z,99102.16
2022-12-24T04:50:27.311Z,99091.78
2022-12-24T04:52:00.416Z,99101.34
2022-12-24T04:53:34.845Z,99103.91
2022-12-24T04:55:09.257Z,99115.19
2022-12-24T04:56:42.679Z,99120.38
2022-12-24T04:58:15.870Z,99116.03
2022-12-24T04:59:49.611Z,99121.25
2022-12-24T05:01:24.284Z,99122.13
2022-12-24T05:02:57.519Z,99129.06
2022-12-24T05:04:32.004Z,99133.38
2022-12-24T05:06:05.432Z,99134.25
2022-12-24T05:07:38.831Z,99138.56
2022-12-24T05:09:13.211Z,99130.78
2022-12-24T05:10:46.420Z,99127.28
2022-12-24T05:12:19.678Z,99135.09
2022-12-24T05:13:51.908Z,99142.03
2022-12-24T05:15:25.557Z,99137.69
2022-12-24T05:16:58.825Z,99137.69
2022-12-24T05:18:31.331Z,99135.13
2022-12-24T05:20:08.775Z,99143.78
2022-12-24T05:21:41.844Z,99140.31
2022-12-24T05:23:35.280Z,99149.84
2022-12-24T05:25:28.717Z,99141.16
2022-12-24T05:27:01.936Z,99142.88
2022-12-24T05:28:35.190Z,99138.56
2022-12-24T05:30:09.694Z,99142.88
2022-12-24T05:31:45.373Z,99136.81
2022-12-24T05:33:19.065Z,99142.00
2022-12-24T05:34:52.361Z,99142.00
2022-12-24T05:36:25.615Z,99142.00
2022-12-24T05:37:58.589Z,99136.81
2022-12-24T05:39:31.842Z,99151.53
2022-12-24T05:41:06.296Z,99143.75
2022-12-24T05:42:39.675Z,99140.25
2022-12-24T05:44:13.034Z,99138.53
2022-12-24T05:45:46.766Z,99143.75
2022-12-24T05:47:19.999Z,99141.13
2022-12-24T05:48:54.457Z,99135.94
2022-12-24T05:50:28.625Z,99129.00
2022-12-24T05:52:11.438Z,99129.03
2022-12-24T05:53:43.874Z,99139.44
2022-12-24T05:55:17.032Z,99132.47
2022-12-24T05:56:51.591Z,99127.28
2022-12-24T05:58:23.800Z,99135.09
2022-12-24T05:59:57.002Z,99129.91
2022-12-24T06:01:30.649Z,99131.63
2022-12-24T06:03:04.416Z,99132.47
2022-12-24T06:04:37.645Z,99142.03
2022-12-24T06:06:13.941Z,99138.56
2022-12-24T06:07:46.165Z,99133.34
2022-12-24T06:09:19.403Z,99138.56
2022-12-24T06:10:56.094Z,99134.22
2022-12-24T06:12:31.332Z,99135.94
2022-12-24T06:14:04.901Z,99136.81
2022-12-24T06:15:37.987Z,99127.28
2022-12-24T06:17:11.213Z,99131.59
2022-12-24T06:18:44.519Z,99142.88
2022-12-24T06:20:17.895Z,99134.22
2022-12-24T06:21:51.720Z,99129.91
2022-12-24T06:23:24.599Z,99130.72
2022-12-24T06:24:58.122Z,99137.69
2022-12-24T06:26:31.643Z,99136.81
2022-12-24T06:28:05.720Z,99140.31
2022-12-24T06:29:39.450Z,99134.22
2022-12-24T06:31:14.972Z,99135.97
2022-12-24T06:32:48.483Z,99129.03
2022-12-24T06:34:23.915Z,99140.34
2022-12-24T06:35:57.067Z,99130.81
2022-12-24T06:37:30.800Z,99133.38
2022-12-24T06:39:03.000Z,99138.59
2022-12-24T06:40:36.658Z,99143.81
2022-12-24T06:42:09.759Z,99142.94
2022-12-24T06:43:47.220Z,99145.53
2022-12-24T06:45:20.592Z,99149.00
2022-12-24T06:46:53.993Z,99148.13
2022-12-24T06:48:27.653Z,99138.59
2022-12-24T06:50:00.858Z,99139.47
2022-12-24T06:51:34.309Z,99143.78
2022-12-24T06:53:07.738Z,99140.31
2022-12-24T06:54:41.370Z,99151.56
2022-12-24T06:56:14.764Z,99148.09
2022-12-24T06:57:48.356Z,99160.22
2022-12-24T06:59:23.046Z,99160.22
2022-12-24T07:00:56.509Z,99155.06
2022-12-24T07:02:29.646Z,99165.44
2022-12-24T07:04:03.363Z,99159.38
2022-12-24T07:05:38.663Z,99154.19
2022-12-24T07:07:13.112Z,99168.91
2022-12-24T07:08:46.298Z,99169.81
2022-12-24T07:10:19.286Z,99163.69
2022-12-24T07:11:52.655Z,99168.03
2022-12-24T07:13:25.819Z,99172.38
2022-12-24T07:15:00.468Z,99153.28
2022-12-24T07:16:33.803Z,99162.81
2022-12-24T07:18:07.785Z,99166.28
2022-12-24T07:19:40.876Z,99162.84
2022-12-24T07:21:13.299Z,99162.81
2022-12-24T07:22:47.949Z,99158.47
2022-12-24T07:24:21.632Z,99165.41
2022-12-24T07:25:53.812Z,99160.19
2022-12-24T07:27:27.125Z,99154.94
2022-12-24T07:29:00.333Z,99151.44
2022-12-24T07:30:34.396Z,99153.16
2022-12-24T07:32:08.102Z,99148.78
2022-12-24T07:33:41.487Z,99145.28
2022-12-24T07:35:15.484Z,99144.41
2022-12-24T07:36:49.051Z,99154.81
2022-12-24T07:38:22.210Z,99163.47
2022-12-24T07:39:55.295Z,99156.53
2022-12-24T07:41:28.456Z,99153.03
2022-12-24T07:43:01.044Z,99146.00
2022-12-24T07:44:34.483Z,99148.53
2022-12-24T07:46:09.816Z,99157.97
2022-12-24T07:47:43.535Z,99153.53
2022-12-24T07:49:17.276Z,99146.50
2022-12-24T07:50:50.888Z,99144.59
2022-12-24T07:52:24.174Z,99148.78
2022-12-24T07:53:57.389Z,99147.81
2022-12-24T07:55:31.995Z,99142.63
2022-12-24T07:57:05.587Z,99137.41
2022-12-24T07:58:37.819Z,99137.44
2022-12-24T08:00:12.106Z,99134.88
2022-12-24T08:01:47.803Z,99142.69
2022-12-24T08:03:22.958Z,99149.63
2022-12-24T08:04:56.898Z,99154.16
2022-12-24T08:06:30.281Z,99148.06
2022-12-24T08:08:03.218Z,99150.69
2022-12-24T08:09:37.811Z,99148.06
2022-12-24T08:11:10.993Z,99153.38
2022-12-24T08:12:45.606Z,99143.78
2022-12-24T08:14:19.447Z,99145.47
2022-12-24T08:15:51.789Z,99144.53
2022-12-24T08:17:31.988Z,99141.75
2022-12-24T08:19:06.011Z,99153.75
2022-12-24T08:20:43.006Z,99153.69
2022-12-24T08:22:16.951Z,99147.50
2022-12-24T08:23:50.360Z,99158.72
2022-12-24T08:25:22.516Z,99143.91
2022-12-24T08:26:55.898Z,99144.81
2022-12-24T08:28:29.341Z,99149.13
2022-12-24T08:30:03.165Z,99143.97
2022-12-24T08:31:38.250Z,99148.38
2022-12-24T08:33:13.063Z,99145.72
2022-12-24T08:34:46.172Z,99144.84
2022-12-24T08:36:20.367Z,99150.81
2022-12-24T08:37:53.670Z,99144.47
2022-12-24T08:39:26.740Z,99151.16
2022-12-24T08:41:00.911Z,99137.22
2022-12-24T08:42:34.071Z,99140.59
2022-12-24T08:44:07.702Z,99142.22
2022-12-24T08:45:41.372Z,99143.88
2022-12-24T08:47:14.614Z,99143.56
2022-12-24T08:48:49.439Z,99148.47
2022-12-24T08:50:23.410Z,99141.41
2022-12-24T08:51:56.555Z,99141.50
2022-12-24T08:53:29.316Z,99143.28
2022-12-24T08:55:04.702Z,99140.59
2022-12-24T08:56:38.112Z,99141.31
2022-12-24T08:58:12.572Z,99156.97
2022-12-24T08:59:45.754Z,99148.09
2022-12-24T09:01:21.503Z,99138.34
2022-12-24T09:02:54.890Z,99148.66
2022-12-24T09:04:30.697Z,99142.38
2022-12-24T09:06:05.321Z,99148.41
2022-12-24T09:07:38.733Z,99134.38
2022-12-24T09:09:11.893Z,99131.72
2022-12-24T09:10:44.999Z,99130.00
2022-12-24T09:12:18.161Z,99129.91
2022-12-24T09:13:55.088Z,99128.09
2022-12-24T09:15:28.544Z,99124.66
2022-12-24T09:17:06.546Z,99117.78
2022-12-24T09:18:40.426Z,99115.16
2022-12-24T09:20:15.409Z,99116.00
2022-12-24T09:21:48.718Z,99107.34
2022-12-24T09:23:21.862Z,99110.78
2022-12-24T09:24:56.167Z,99096.81
2022-12-24T09:26:31.555Z,99103.75
2022-12-24T09:28:04.846Z,99100.38
2022-12-24T09:29:40.682Z,99107.34
2022-12-24T09:31:14.509Z,99100.41
2022-12-24T09:32:47.705Z,99095.97
2022-12-24T09:34:25.173Z,99108.06
2022-12-24T09:36:05.448Z,99100.09
2022-12-24T09:37:41.968Z,99094.72
2022-12-24T09:39:15.911Z,99086.88
2022-12-24T09:40:49.405Z,99092.97
2022-12-24T09:42:31.922Z,99082.28
2022-12-24T09:44:19.840Z,99090.72
2022-12-24T09:46:08.387Z,99085.44
2022-12-24T09:47:47.942Z,99089.97
2022-12-24T09:49:25.607Z,99086.50
2022-12-24T09:51:05.520Z,99086.50
2022-12-24T09:52:45.457Z,99081.97
2022-12-24T09:54:23.710Z,99083.56
2022-12-24T09:55:59.630Z,99079.13
2022-12-24T09:57:38.322Z,99084.94
2022-12-24T09:59:15.713Z,99082.47
2022-12-24T10:00:50.357Z,99079.56
2022-12-24T10:02:23.963Z,99086.34
2022-12-24T10:04:00.408Z,99084.34
2022-12-24T10:05:41.620Z,99066.88
2022-12-24T10:07:29.590Z,99080.75
2022-12-24T10:09:15.123Z,99077.25
2022-12-24T10:10:53.223Z,99072.03
2022-12-24T10:12:34.197Z,99069.38
2022-12-24T10:14:20.508Z,99078.94
2022-12-24T10:16:01.894Z,99073.63
2022-12-24T10:17:53.643Z,99072.59
2022-12-24T10:19:49.417Z,99069.03
2022-12-24T10:21:33.667Z,99071.47
2022-12-24T10:23:15.612Z,99076.66
2022-12-24T10:24:59.579Z,99071.41
2022-12-24T10:26:41.349Z,99071.34
2022-12-24T10:28:19.323Z,99076.53
2022-12-24T10:29:58.851Z,99070.34
2022-12-24T10:31:40.888Z,99080.25
2022-12-24T10:33:20.402Z,99078.44
2022-12-24T10:35:00.455Z,99083.69
2022-12-24T10:36:33.735Z,99085.41
2022-12-24T10:38:06.952Z,99089.84
2022-12-24T10:39:40.798Z,99094.13
2022-12-24T10:41:17.319Z,99088.13
2022-12-24T10:42:51.597Z,99082.78
2022-12-24T10:44:29.288Z,99084.50
2022-12-24T10:46:07.917Z,99080.94
2022-12-24T10:47:43.537Z,99085.28
2022-12-24T10:49:20.038Z,99078.06
2022-12-24T10:50:58.583Z,99081.47
2022-12-24T10:52:36.838Z,99079.66
2022-12-24T10:54:19.455Z,99083.00
2022-12-24T10:56:03.415Z,99081.19
2022-12-24T10:57:39.676Z,99075.91
2022-12-24T10:59:26.789Z,99072.28
2022-12-24T11:00:59.995Z,99075.84
2022-12-24T11:02:35.232Z,99075.72
2022-12-24T11:04:16.516Z,99077.47
2022-12-24T11:06:06.038Z,99073.94
2022-12-24T11:07:39.948Z,99069.56
2022-12-24T11:09:23.480Z,99068.78
2022-12-24T11:10:58.614Z,99079.44
2022-12-24T11:12:35.291Z,99066.25
2022-12-24T11:14:18.190Z,99073.31
2022-12-24T11:16:01.716Z,99076.91
2022-12-24T11:17:35.614Z,99074.47
2022-12-24T11:19:21.241Z,99072.88
2022-12-24T11:20:59.554Z,99070.97
2022-12-24T11:22:33.944Z,99077.88
2022-12-24T11:24:15.719Z,99076.03
2022-12-24T11:25:51.854Z,99073.53
2022-12-24T11:27:32.142Z,99072.56
2022-12-24T11:29:13.632Z,99068.84
2022-12-24T11:31:01.569Z,99063.56
2022-12-24T11:32:34.987Z,99054.72
2022-12-24T11:34:23.599Z,99044.25
2022-12-24T11:36:04.622Z,99051.13
2022-12-24T11:37:38.375Z,99049.34
2022-12-24T11:39:21.469Z,99052.91
2022-12-24T11:41:13.400Z,99044.84
2022-12-24T11:42:46.632Z,99049.16
2022-12-24T11:44:27.907Z,99060.41
2022-12-24T11:46:14.626Z,99063.03
2022-12-24T11:47:47.990Z,99056.81
2022-12-24T11:49:27.354Z,99060.38
2022-12-24T11:51:04.974Z,99061.13
2022-12-24T11:52:39.437Z,99055.97
2022-12-24T11:54:21.744Z,99057.56
2022-12-24T11:55:58.021Z,99051.34
2022-12-24T11:57:45.553Z,99052.00
2022-12-24T11:59:25.234Z,99049.31
2022-12-24T12:01:10.163Z,99043.75
2022-12-24T12:02:52.888Z,99047.06
2022-12-24T12:04:30.801Z,99052.16
2022-12-24T12:06:09.101Z,99055.53
2022-12-24T12:07:44.692Z,99045.91
2022-12-24T12:09:22.841Z,99045.91
2022-12-24T12:10:57.958Z,99047.53
2022-12-24T12:12:33.928Z,99054.53
2022-12-24T12:14:11.435Z,99051.00
2022-12-24T12:15:50.262Z,99059.97
2022-12-24T12:17:32.544Z,99054.72
2022-12-24T12:19:14.937Z,99050.50
2022-12-24T12:20:52.021Z,99059.09
2022-12-24T12:22:31.606Z,99052.81
2022-12-24T12:24:08.346Z,99064.13
2022-12-24T12:25:48.495Z,99066.16
2022-12-24T12:27:29.282Z,99066.91
2022-12-24T12:29:06.450Z,99066.88
2022-12-24T12:30:42.329Z,99064.97
2022-12-24T12:32:28.370Z,99070.16
2022-12-24T12:34:07.518Z,99052.56
2022-12-24T12:35:43.293Z,99050.03
2022-12-24T12:37:21.832Z,99038.03
2022-12-24T12:38:55.226Z,99038.84
2022-12-24T12:40:41.520Z,99045.75
2022-12-24T12:42:24.782Z,99046.75
2022-12-24T12:44:26.281Z,99046.91
2022-12-24T12:46:09.941Z,99049.47
2022-12-24T12:48:01.373Z,99046.00
2022-12-24T12:49:44.352Z,99038.94
2022-12-24T12:51:23.941Z,99037.22
2022-12-24T12:53:29.597Z,99037.31
2022-12-24T12:55:23.886Z,99042.81
2022-12-24T12:57:04.452Z,99040.94
2022-12-24T12:58:41.132Z,99040.00
2022-12-24T13:00:18.976Z,99035.91
2022-12-24T13:02:02.318Z,99040.09
2022-12-24T13:04:11.570Z,99042.00
2022-12-24T13:06:14.752Z,99037.47
2022-12-24T13:08:03.563Z,99044.44
2022-12-24T13:10:04.666Z,99038.47
2022-12-24T13:12:01.614Z,99044.47
2022-12-24T13:13:54.118Z,99053.16
2022-12-24T13:15:51.822Z,99056.72
2022-12-24T13:17:46.924Z,99048.69
2022-12-24T13:19:38.216Z,99046.00
2022-12-24T13:21:18.910Z,99059.06
2022-12-24T13:22:59.165Z,99055.53
2022-12-24T13:24:35.500Z,99056.34
2022-12-24T13:26:14.116Z,99058.06
2022-12-24T13:27:47.657Z,99066.78
2022-12-24T13:29:43.393Z,99060.63
2022-12-24T13:31:29.882Z,99063.25
2022-12-24T13:33:04.127Z,99061.50
2022-12-24T13:34:39.304Z,99061.50
2022-12-24T13:36:16.714Z,99065.84
2022-12-24T13:37:52.763Z,99068.50
2022-12-24T13:39:26.473Z,99073.69
2022-12-24T13:41:50.670Z,99063.16
2022-12-24T13:43:24.426Z,99072.78
2022-12-24T13:45:30.750Z,99073.63
2022-12-24T13:47:25.338Z,99083.19
2022-12-24T13:49:13.396Z,99069.22
2022-12-24T13:50:50.623Z,99072.81
2022-12-24T13:52:37.654Z,99073.78
2022-12-24T13:54:19.744Z,99077.25
2022-12-24T13:55:55.613Z,99075.56
2022-12-24T13:57:34.015Z,99084.28
2022-12-24T13:59:33.133Z,99082.75
2022-12-24T14:01:13.412Z,99089.91
2022-12-24T14:02:50.668Z,99090.06
2022-12-24T14:04:28.293Z,99090.06
2022-12-24T14:06:05.144Z,99087.31
2022-12-24T14:07:38.721Z,99094.41
2022-12-24T14:09:18.075Z,99093.59
2022-12-24T14:11:04.976Z,99091.97
2022-12-24T14:12:50.050Z,99095.41
2022-12-24T14:14:31.996Z,99092.72
2022-12-24T14:16:06.276Z,99104.34
2022-12-24T14:17:40.769Z,99099.84
2022-12-24T14:19:17.832Z,99102.50
2022-12-24T14:20:54.710Z,99095.59
2022-12-24T14:22:32.039Z,99109.63
2022-12-24T14:24:13.420Z,99117.44
2022-12-24T14:25:48.239Z,99114.81
2022-12-24T14:27:26.126Z,99113.16
2022-12-24T14:29:05.057Z,99116.78
2022-12-24T14:30:39.267Z,99115.81
2022-12-24T14:32:16.272Z,99130.56
2022-12-24T14:33:50.048Z,99116.50
2022-12-24T14:35:27.028Z,99119.97
2022-12-24T14:37:05.259Z,99111.38
2022-12-24T14:38:42.043Z,99118.41
2022-12-24T14:40:19.793Z,99118.50
2022-12-24T14:42:03.497Z,99119.47
2022-12-24T14:43:54.384Z,99118.75
2022-12-24T14:45:35.122Z,99112.59
2022-12-24T14:47:22.110Z,99123.09
2022-12-24T14:48:58.870Z,99120.50
2022-12-24T14:50:49.322Z,99127.53
2022-12-24T14:53:04.031Z,99124.88
2022-12-24T14:54:36.287Z,99136.16
2022-12-24T14:56:17.271Z,99130.91
2022-12-24T14:57:52.246Z,99130.91
2022-12-24T14:59:26.966Z,99149.28
2022-12-24T15:01:02.025Z,99144.06
2022-12-24T15:02:44.356Z,99141.44
2022-12-24T15:04:19.457Z,99147.53
2022-12-24T15:05:55.884Z,99145.78
2022-12-24T15:07:28.369Z,99154.69
2022-12-24T15:09:02.959Z,99157.34
2022-12-24T15:10:38.928Z,99154.88
2022-12-24T15:12:14.257Z,99159.22
2022-12-24T15:13:53.978Z,99157.53
2022-12-24T15:15:27.177Z,99148.72
2022-12-24T15:17:03.575Z,99153.97
2022-12-24T15:18:39.860Z,99159.22
2022-12-24T15:20:17.439Z,99160.09
2022-12-24T15:21:51.114Z,99154.88
2022-12-24T15:23:29.136Z,99164.63
2022-12-24T15:25:02.379Z,99155.94
2022-12-24T15:26:37.226Z,99155.09
2022-12-24T15:28:19.612Z,99153.44
2022-12-24T15:29:58.352Z,99152.53
2022-12-24T15:31:32.979Z,99143.97
2022-12-24T15:33:07.481Z,99162.13
2022-12-24T15:34:42.657Z,99152.47
2022-12-24T15:36:16.215Z,99163.75
2022-12-24T15:37:49.508Z,99161.03
2022-12-24T15:39:22.788Z,99174.94
2022-12-24T15:40:56.410Z,99175.78
2022-12-24T15:42:32.397Z,99171.41
2022-12-24T15:44:09.473Z,99176.66
2022-12-24T15:45:48.568Z,99167.97
2022-12-24T15:47:28.055Z,99180.13
2022-12-24T15:49:03.868Z,99174.03
2022-12-24T15:50:39.263Z,99172.28
2022-12-24T15:52:16.086Z,99180.03
2022-12-24T15:53:50.102Z,99181.81
2022-12-24T15:55:28.799Z,99185.44
2022-12-24T15:57:14.502Z,99185.38
2022-12-24T15:58:47.860Z,99185.28
2022-12-24T16:00:24.174Z,99195.72
2022-12-24T16:02:20.077Z,99179.19
2022-12-24T16:04:00.551Z,99190.53
2022-12-24T16:05:37.051Z,99190.44
2022-12-24T16:07:25.821Z,99197.38
2022-12-24T16:08:59.027Z,99193.00
2022-12-24T16:10:32.129Z,99201.81
2022-12-24T16:12:06.162Z,99190.47
2022-12-24T16:13:43.329Z,99193.03
2022-12-24T16:15:16.950Z,99206.09
2022-12-24T16:16:53.008Z,99206.06
2022-12-24T16:18:33.537Z,99199.97
2022-12-24T16:20:17.540Z,99202.56
2022-12-24T16:21:54.600Z,99204.47
2022-12-24T16:23:34.014Z,99213.25
2022-12-24T16:25:24.215Z,99209.84
2022-12-24T16:26:59.164Z,99208.94
2022-12-24T16:28:31.586Z,99207.25
2022-12-24T16:30:05.705Z,99211.75
2022-12-24T16:31:44.577Z,99211.81
2022-12-24T16:33:22.277Z,99217.06
2022-12-24T16:34:57.354Z,99217.09
2022-12-24T16:36:32.041Z,99212.91
2022-12-24T16:38:05.925Z,99208.50
2022-12-24T16:39:39.044Z,99224.13
2022-12-24T16:41:12.967Z,99223.19
2022-12-24T16:43:03.802Z,99228.47
2022-12-24T16:44:36.414Z,99225.81
2022-12-24T16:46:10.125Z,99230.19
2022-12-24T16:47:43.949Z,99221.44
2022-12-24T16:49:18.697Z,99224.88
2022-12-24T16:50:55.025Z,99222.25
2022-12-24T16:52:30.122Z,99222.22
2022-12-24T16:54:03.807Z,99218.78
2022-12-24T16:55:37.222Z,99217.03
2022-12-24T16:57:11.831Z,99223.25
2022-12-24T16:58:45.831Z,99231.19
2022-12-24T17:00:21.908Z,99223.34
2022-12-24T17:01:56.251Z,99226.00
2022-12-24T17:03:29.801Z,99222.47
2022-12-24T17:05:02.958Z,99219.13
2022-12-24T17:06:37.961Z,99217.38
2022-12-24T17:08:12.040Z,99213.91
2022-12-24T17:09:45.576Z,99216.59
2022-12-24T17:11:23.378Z,99210.53
2022-12-24T17:12:56.737Z,99219.22
2022-12-24T17:14:30.173Z,99215.75
2022-12-24T17:16:03.704Z,99222.75
2022-12-24T17:17:37.926Z,99226.28
2022-12-24T17:19:11.679Z,99228.84
2022-12-24T17:20:57.615Z,99233.13
2022-12-24T17:22:32.446Z,99230.53
2022-12-24T17:24:06.913Z,99234.84
2022-12-24T17:25:40.356Z,99231.38
2022-12-24T17:27:12.731Z,99241.84
2022-12-24T17:28:45.879Z,99238.38
2022-12-24T17:30:19.402Z,99248.06
2022-12-24T17:31:53.151Z,99242.00
2022-12-24T17:33:26.579Z,99247.25
2022-12-24T17:35:00.212Z,99250.69
2022-12-24T17:36:34.595Z,99255.03
2022-12-24T17:38:09.535Z,99247.25
2022-12-24T17:39:42.707Z,99248.31
2022-12-24T17:41:18.888Z,99241.41
2022-12-24T17:42:53.097Z,99247.59
2022-12-24T17:44:26.401Z,99239.66
2022-12-24T17:46:00.104Z,99233.56
2022-12-24T17:47:33.338Z,99249.31
2022-12-24T17:49:07.258Z,99238.75
2022-12-24T17:50:41.295Z,99238.75
2022-12-24T17:52:15.292Z,99238.81
2022-12-24T17:53:51.093Z,99237.16
2022-12-24T17:55:24.476Z,99240.75
2022-12-24T17:57:01.911Z,99228.66
2022-12-24T17:58:36.039Z,99237.28
2022-12-24T18:00:10.601Z,99232.03
2022-12-24T18:01:44.305Z,99244.19
2022-12-24T18:03:17.598Z,99235.41
2022-12-24T18:04:51.524Z,99234.47
2022-12-24T18:06:25.075Z,99243.09
2022-12-24T18:07:58.737Z,99245.59
2022-12-24T18:09:33.527Z,99242.81
2022-12-24T18:11:12.987Z,99240.91
2022-12-24T18:12:46.633Z,99245.25
2022-12-24T18:14:20.496Z,99248.69
2022-12-24T18:15:53.873Z,99257.34
2022-12-24T18:17:27.036Z,99250.34
2022-12-24T18:19:00.023Z,99251.31
2022-12-24T18:20:39.611Z,99244.34
2022-12-24T18:22:16.487Z,99251.19
2022-12-24T18:23:51.289Z,99262.59
2022-12-24T18:25:26.888Z,99267.06
2022-12-24T18:27:00.153Z,99274.91
2022-12-24T18:28:34.204Z,99255.75
2022-12-24T18:30:09.205Z,99266.19
2022-12-24T18:31:42.790Z,99271.41
2022-12-24T18:33:15.950Z,99269.66
2022-12-24T18:34:52.384Z,99272.00
2022-12-24T18:36:26.134Z,99266.66
2022-12-24T18:37:59.333Z,99272.75
2022-12-24T18:39:32.494Z,99279.75
2022-12-24T18:41:08.605Z,99279.75
2022-12-24T18:42:43.028Z,99279.63
2022-12-24T18:44:22.546Z,99284.94
2022-12-24T18:45:57.927Z,99279.66
2022-12-24T18:47:31.079Z,99278.75
2022-12-24T18:49:04.335Z,99283.91
2022-12-24T18:50:38.457Z,99283.88
2022-12-24T18:52:11.844Z,99281.19
2022-12-24T18:53:45.538Z,99279.44
2022-12-24T18:55:18.859Z,99286.41
2022-12-24T18:56:53.391Z,99288.28
2022-12-24T18:58:25.513Z,99290.91